Time;durP1;ratioP1;P1;durP2;ratioP2;P2;SDS_P1;SDS_P2;PMS_P1;PMS_P2;Temp;Humidity;BMP_temperature;BMP_pressure;BME280_temperature;BME280_humidity;BME280_pressure;Samples;Min_cycle;Max_cycle;Signal;HPM_P1;HPM_P2
2021/08/06 00:01:21;;;;;;;;;;;19.40;99.90;;;;;;5112673;28;20002;-82
2021/08/06 00:03:47;;;;;;;;;;;19.40;99.90;;;;;;5111206;28;19920;-82
2021/08/06 00:06:12;;;;;;;;;;;19.40;99.90;;;;;;5110993;28;19908;-82
2021/08/06 00:08:38;;;;;;;;;;;19.30;99.90;;;;;;5112772;28;19908;-82
2021/08/06 00:11:04;;;;;;;;;;;19.40;99.90;;;;;;5111774;28;19908;-82
2021/08/06 00:13:29;;;;;;;;;;;19.40;99.90;;;;;;5111930;28;20005;-83
2021/08/06 00:15:57;;;;;;;;;;;19.40;99.90;;;;;;5103838;28;19908;-82
2021/08/06 00:18:23;;;;;;;;;;;19.40;99.90;;;;;;5099098;28;19908;-82
2021/08/06 00:20:48;;;;;;;;;;;19.40;99.90;;;;;;5096810;28;19959;-83
2021/08/06 00:23:14;;;;;;;;;;;19.40;99.90;;;;;;5098976;28;19915;-82
2021/08/06 00:25:39;;;;;;;;;;;19.40;99.90;;;;;;5098181;28;19995;-82
2021/08/06 00:28:05;;;;;;;;;;;19.40;99.90;;;;;;5097264;28;19952;-82
2021/08/06 00:30:30;;;;;;;;;;;19.40;99.90;;;;;;5098177;28;19915;-83
2021/08/06 00:32:56;;;;;;;;;;;19.40;99.90;;;;;;5098787;28;19932;-82
2021/08/06 00:35:21;;;;;;;;;;;19.40;99.90;;;;;;5096588;28;19937;-83
2021/08/06 00:37:47;;;;;;;;;;;19.40;99.90;;;;;;5096736;28;19955;-83
2021/08/06 00:40:13;;;;;;;;;;;19.40;99.90;;;;;;5098084;28;19947;-83
2021/08/06 00:42:38;;;;;;;;;;;19.40;99.90;;;;;;5098188;28;19908;-82
2021/08/06 00:45:05;;;;;;;;;;;19.30;99.90;;;;;;5096112;28;19908;-82
2021/08/06 00:47:31;;;;;;;;;;;19.30;99.90;;;;;;5097566;28;19916;-82
2021/08/06 00:49:56;;;;;;;;;;;19.30;99.90;;;;;;5097113;28;19908;-83
2021/08/06 00:52:22;;;;;;;;;;;19.30;99.90;;;;;;5097421;28;19912;-82
2021/08/06 00:54:48;;;;;;;;;;;19.30;99.90;;;;;;5096575;28;19919;-82
2021/08/06 00:57:14;;;;;;;;;;;19.30;99.90;;;;;;5096447;28;20382;-82
2021/08/06 00:59:40;;;;;;;;;;;19.30;99.90;;;;;;5096705;28;20325;-83
2021/08/06 01:02:18;;;;;;;;;;;19.30;99.90;;;;;;5097070;28;20006;-83
2021/08/06 01:04:51;;;;;;;;;;;19.30;99.90;;;;;;5096570;28;19942;-82
2021/08/06 01:07:23;;;;;;;;;;;19.30;99.90;;;;;;5096584;28;19908;-82
2021/08/06 01:09:53;;;;;;;;;;;19.30;99.90;;;;;;5095340;28;19912;-82
2021/08/06 01:12:24;;;;;;;;;;;19.30;99.90;;;;;;5096145;28;19920;-82
2021/08/06 01:14:50;;;;;;;;;;;19.30;99.90;;;;;;5096712;28;20261;-83
2021/08/06 01:17:16;;;;;;;;;;;19.30;99.90;;;;;;5098257;28;19943;-83
2021/08/06 01:19:52;;;;;;;;;;;19.30;99.90;;;;;;5097767;28;20003;-82
2021/08/06 01:22:24;;;;;;;;;;;19.30;99.90;;;;;;5096668;28;19909;-83
2021/08/06 01:25:16;;;;;;;;;;;19.30;99.90;;;;;;5098489;28;19950;-83
2021/08/06 01:27:43;;;;;;;;;;;19.30;99.90;;;;;;5079203;28;20406;-82
2021/08/06 01:30:10;;;;;;;;;;;19.30;99.90;;;;;;5095729;28;19908;-82
2021/08/06 01:32:36;;;;;;;;;;;19.30;99.90;;;;;;5096101;28;20272;-82
2021/08/06 01:35:02;;;;;;;;;;;19.30;99.90;;;;;;5096333;28;19923;-83
2021/08/06 01:37:27;;;;;;;;;;;19.20;99.90;;;;;;5095990;28;19908;-83
2021/08/06 01:39:53;;;;;;;;;;;19.20;99.90;;;;;;5097097;28;19908;-82
2021/08/06 01:42:25;;;;;;;;;;;19.20;99.90;;;;;;5096052;28;19915;-82
2021/08/06 01:44:51;;;;;;;;;;;19.20;99.90;;;;;;5096086;28;19908;-83
2021/08/06 01:47:23;;;;;;;;;;;19.20;99.90;;;;;;5098547;28;19916;-82
2021/08/06 01:49:54;;;;;;;;;;;19.20;99.90;;;;;;5095592;28;19915;-83
2021/08/06 01:52:30;;;;;;;;;;;19.20;99.90;;;;;;5096770;28;19931;-81
2021/08/06 01:54:59;;;;;;;;;;;19.10;99.90;;;;;;5098610;28;20369;-82
2021/08/06 01:57:26;;;;;;;;;;;19.10;99.90;;;;;;5097564;28;19908;-83
2021/08/06 01:59:53;;;;;;;;;;;19.10;99.90;;;;;;5095436;28;20439;-82
2021/08/06 02:02:18;;;;;;;;;;;19.10;99.90;;;;;;5095781;28;19908;-82
2021/08/06 02:04:44;;;;;;;;;;;19.20;99.90;;;;;;5096526;28;19923;-83
2021/08/06 02:07:10;;;;;;;;;;;19.10;99.90;;;;;;5097840;28;20006;-82
2021/08/06 02:09:37;;;;;;;;;;;19.10;99.90;;;;;;5095361;28;19930;-82
2021/08/06 02:12:03;;;;;;;;;;;19.10;99.90;;;;;;5097128;28;19915;-82
2021/08/06 02:14:28;;;;;;;;;;;19.10;99.90;;;;;;5095822;28;19915;-82
2021/08/06 02:16:54;;;;;;;;;;;19.10;99.90;;;;;;5096530;28;19954;-82
2021/08/06 02:19:22;;;;;;;;;;;19.10;99.90;;;;;;5094583;28;20046;-82
2021/08/06 02:21:49;;;;;;;;;;;19.00;99.90;;;;;;5097630;28;19909;-83
2021/08/06 02:24:15;;;;;;;;;;;19.00;99.90;;;;;;5096645;28;19912;-83
2021/08/06 02:26:42;;;;;;;;;;;19.00;99.90;;;;;;5096450;28;20384;-83
2021/08/06 02:29:09;;;;;;;;;;;19.00;99.90;;;;;;5097793;28;19911;-82
2021/08/06 02:31:35;;;;;;;;;;;19.00;99.90;;;;;;5095837;28;19908;-82
2021/08/06 02:34:00;;;;;;;;;;;19.00;99.90;;;;;;5096489;28;20406;-82
2021/08/06 02:36:26;;;;;;;;;;;19.00;99.90;;;;;;5098327;28;19908;-82
2021/08/06 02:38:56;;;;;;;;;;;19.00;99.90;;;;;;5095498;28;19920;-82
2021/08/06 02:41:21;;;;;;;;;;;19.00;99.90;;;;;;5095738;28;19912;-82
2021/08/06 02:43:47;;;;;;;;;;;19.00;99.90;;;;;;5096742;28;19961;-82
2021/08/06 02:46:14;;;;;;;;;;;19.00;99.90;;;;;;5097762;28;20284;-81
2021/08/06 02:48:40;;;;;;;;;;;19.00;99.90;;;;;;5095858;28;19970;-83
2021/08/06 02:51:05;;;;;;;;;;;19.00;99.90;;;;;;5096639;28;20322;-82
2021/08/06 02:53:31;;;;;;;;;;;19.00;99.90;;;;;;5098368;28;19913;-82
2021/08/06 02:55:56;;;;;;;;;;;19.00;99.90;;;;;;5096559;28;19978;-83
2021/08/06 02:58:22;;;;;;;;;;;19.00;99.90;;;;;;5095623;28;19908;-82
2021/08/06 03:00:48;;;;;;;;;;;19.00;99.90;;;;;;5098142;28;19939;-82
2021/08/06 03:03:14;;;;;;;;;;;19.00;99.90;;;;;;5098058;28;19930;-82
2021/08/06 03:05:39;;;;;;;;;;;19.00;99.90;;;;;;5095996;28;19912;-82
2021/08/06 03:08:05;;;;;;;;;;;19.00;99.90;;;;;;5095660;28;19908;-83
2021/08/06 03:10:30;;;;;;;;;;;19.00;99.90;;;;;;5096617;28;20419;-83
2021/08/06 03:12:56;;;;;;;;;;;19.00;99.90;;;;;;5098983;28;19951;-82
2021/08/06 03:15:21;;;;;;;;;;;19.00;99.90;;;;;;5098525;28;19923;-82
2021/08/06 03:17:47;;;;;;;;;;;19.00;99.90;;;;;;5096038;28;19915;-82
2021/08/06 03:20:14;;;;;;;;;;;19.00;99.90;;;;;;5093933;28;19940;-82
2021/08/06 03:22:40;;;;;;;;;;;18.90;99.90;;;;;;5095702;28;19934;-82
2021/08/06 03:25:06;;;;;;;;;;;18.90;99.90;;;;;;5095499;28;19912;-83
2021/08/06 03:27:31;;;;;;;;;;;18.90;99.90;;;;;;5094536;28;19912;-82
2021/08/06 03:29:57;;;;;;;;;;;18.90;99.90;;;;;;5095532;28;19930;-82
2021/08/06 03:32:22;;;;;;;;;;;18.90;99.90;;;;;;5094163;28;20361;-82
2021/08/06 03:34:48;;;;;;;;;;;18.90;99.90;;;;;;5095485;28;20018;-82
2021/08/06 03:37:13;;;;;;;;;;;18.90;99.90;;;;;;5095980;28;20002;-82
2021/08/06 03:39:39;;;;;;;;;;;18.90;99.90;;;;;;5093165;28;19908;-82
2021/08/06 03:42:04;;;;;;;;;;;18.90;99.90;;;;;;5096386;28;19908;-83
2021/08/06 03:44:30;;;;;;;;;;;18.90;99.90;;;;;;5093979;28;19964;-82
2021/08/06 03:46:55;;;;;;;;;;;18.90;99.90;;;;;;5093983;28;20003;-83
2021/08/06 03:49:21;;;;;;;;;;;18.90;99.90;;;;;;5094745;28;19912;-83
2021/08/06 03:51:46;;;;;;;;;;;18.90;99.90;;;;;;5096679;28;19912;-81
2021/08/06 03:54:12;;;;;;;;;;;18.90;99.90;;;;;;5098890;28;19912;-82
2021/08/06 03:56:37;;;;;;;;;;;18.90;99.90;;;;;;5097660;28;19937;-82
2021/08/06 03:59:03;;;;;;;;;;;18.80;99.90;;;;;;5096248;28;20391;-82
2021/08/06 04:01:28;;;;;;;;;;;18.80;99.90;;;;;;5096858;28;19930;-82
2021/08/06 04:03:54;;;;;;;;;;;18.80;99.90;;;;;;5096907;28;19916;-82
2021/08/06 04:06:19;;;;;;;;;;;18.80;99.90;;;;;;5100400;28;19912;-82
2021/08/06 04:08:45;;;;;;;;;;;18.80;99.90;;;;;;5097444;28;19908;-82
2021/08/06 04:11:10;;;;;;;;;;;18.70;99.90;;;;;;5098250;28;20257;-82
2021/08/06 04:13:36;;;;;;;;;;;18.70;99.90;;;;;;5097265;28;19915;-82
2021/08/06 04:16:01;;;;;;;;;;;18.70;99.90;;;;;;5099119;28;20020;-83
2021/08/06 04:18:27;;;;;;;;;;;18.70;99.90;;;;;;5097214;28;19908;-82
2021/08/06 04:20:53;;;;;;;;;;;18.70;99.90;;;;;;5098161;28;19908;-82
2021/08/06 04:23:19;;;;;;;;;;;18.70;99.90;;;;;;5098687;28;19915;-82
2021/08/06 04:25:44;;;;;;;;;;;18.70;99.90;;;;;;5096419;28;20276;-82
2021/08/06 04:28:10;;;;;;;;;;;18.70;99.90;;;;;;5098313;28;19908;-82
2021/08/06 04:30:35;;;;;;;;;;;18.60;99.90;;;;;;5096792;28;19970;-82
2021/08/06 04:33:01;;;;;;;;;;;18.60;99.90;;;;;;5097623;28;19944;-82
2021/08/06 04:35:26;;;;;;;;;;;18.60;99.90;;;;;;5095643;28;19914;-82
2021/08/06 04:37:53;;;;;;;;;;;18.60;99.90;;;;;;5096660;28;19916;-82
2021/08/06 04:40:19;;;;;;;;;;;18.60;99.90;;;;;;5095235;28;19952;-82
2021/08/06 04:42:44;;;;;;;;;;;18.60;99.90;;;;;;5095574;28;19908;-82
2021/08/06 04:45:10;;;;;;;;;;;18.70;99.90;;;;;;5096880;28;20050;-82
2021/08/06 04:47:41;;;;;;;;;;;18.60;99.90;;;;;;5097373;28;20371;-82
2021/08/06 04:50:06;;;;;;;;;;;18.60;99.90;;;;;;5096211;28;19991;-82
2021/08/06 04:52:32;;;;;;;;;;;18.60;99.90;;;;;;5096886;28;19943;-82
2021/08/06 04:54:57;;;;;;;;;;;18.60;99.90;;;;;;5098245;28;20383;-82
2021/08/06 04:57:23;;;;;;;;;;;18.60;99.90;;;;;;5096878;28;19915;-82
2021/08/06 04:59:48;;;;;;;;;;;18.50;99.90;;;;;;5096844;28;19914;-82
2021/08/06 05:02:14;;;;;;;;;;;18.60;99.90;;;;;;5096693;28;20000;-82
2021/08/06 05:04:39;;;;;;;;;;;18.50;99.90;;;;;;5097118;28;20349;-82
2021/08/06 05:07:07;;;;;;;;;;;18.50;99.90;;;;;;5097007;28;19908;-82
2021/08/06 05:09:33;;;;;;;;;;;18.50;99.90;;;;;;5095470;28;19908;-82
2021/08/06 05:11:58;;;;;;;;;;;18.50;99.90;;;;;;5096884;28;19909;-82
2021/08/06 05:14:24;;;;;;;;;;;18.50;99.90;;;;;;5098511;28;19912;-82
2021/08/06 05:16:49;;;;;;;;;;;18.50;99.90;;;;;;5120468;22;19915;-89
2021/08/06 05:19:15;;;;;;;;;;;18.50;99.90;;;;;;5090100;28;19923;-90
2021/08/06 05:21:40;;;;;;;;;;;18.50;99.90;;;;;;5075111;28;19917;-89
2021/08/06 05:24:06;;;;;;;;;;;18.50;99.90;;;;;;5092039;28;20425;-91
2021/08/06 05:26:31;;;;;;;;;;;18.50;99.90;;;;;;5091435;28;20346;-89
2021/08/06 05:28:57;;;;;;;;;;;18.50;99.90;;;;;;5090699;28;19916;-90
2021/08/06 05:31:22;;;;;;;;;;;18.50;99.90;;;;;;5089750;28;19908;-89
2021/08/06 05:33:48;;;;;;;;;;;18.50;99.90;;;;;;5075236;28;19917;-89
2021/08/06 05:36:13;;;;;;;;;;;18.50;99.90;;;;;;5089776;28;20373;-89
2021/08/06 05:38:39;;;;;;;;;;;18.50;99.90;;;;;;5089872;28;19912;-89
2021/08/06 05:41:04;;;;;;;;;;;18.60;99.90;;;;;;5073966;28;20013;-89
2021/08/06 05:43:30;;;;;;;;;;;18.60;99.90;;;;;;5089918;28;20047;-89
2021/08/06 05:45:56;;;;;;;;;;;18.60;99.90;;;;;;5073792;28;19915;-89
2021/08/06 05:48:21;;;;;;;;;;;18.60;99.90;;;;;;5090098;28;19915;-89
2021/08/06 05:50:47;;;;;;;;;;;18.60;99.90;;;;;;5073675;28;19916;-89
2021/08/06 05:53:12;;;;;;;;;;;18.60;99.90;;;;;;5089327;28;19962;-89
2021/08/06 05:55:38;;;;;;;;;;;18.70;99.90;;;;;;5073546;28;19912;-89
2021/08/06 05:58:04;;;;;;;;;;;18.60;99.90;;;;;;5089215;28;20426;-89
2021/08/06 06:00:29;;;;;;;;;;;18.70;99.90;;;;;;5073399;28;19958;-88
2021/08/06 06:03:01;;;;;;;;;;;18.70;99.90;;;;;;5089173;28;19913;-89
2021/08/06 06:05:26;;;;;;;;;;;18.70;99.90;;;;;;5089319;28;20007;-89
2021/08/06 06:07:52;;;;;;;;;;;18.70;99.90;;;;;;5088916;28;19995;-89
2021/08/06 06:10:18;;;;;;;;;;;18.80;99.90;;;;;;5073349;28;20261;-89
2021/08/06 06:12:44;;;;;;;;;;;18.80;99.90;;;;;;5072975;28;19909;-89
2021/08/06 06:15:10;;;;;;;;;;;18.90;99.90;;;;;;5073081;28;19962;-89
2021/08/06 06:17:35;;;;;;;;;;;18.90;99.90;;;;;;5073172;28;19916;-89
2021/08/06 06:20:01;;;;;;;;;;;18.90;99.90;;;;;;5088915;28;20417;-89
2021/08/06 06:22:26;;;;;;;;;;;18.90;99.90;;;;;;5088624;28;19909;-89
2021/08/06 06:24:52;;;;;;;;;;;18.90;99.90;;;;;;5088750;28;20388;-89
2021/08/06 06:27:17;;;;;;;;;;;18.90;99.90;;;;;;5073225;28;20007;-89
2021/08/06 06:29:43;;;;;;;;;;;18.90;99.90;;;;;;5073442;28;19914;-89
2021/08/06 06:32:08;;;;;;;;;;;18.90;99.90;;;;;;5088890;28;19930;-89
2021/08/06 06:34:34;;;;;;;;;;;18.90;99.90;;;;;;5088583;28;19913;-89
2021/08/06 06:36:59;;;;;;;;;;;18.90;99.90;;;;;;5088631;28;19908;-89
2021/08/06 06:39:25;;;;;;;;;;;18.90;99.90;;;;;;5088720;28;20441;-89
2021/08/06 06:41:50;;;;;;;;;;;18.80;99.90;;;;;;5088367;28;20319;-89
2021/08/06 06:44:16;;;;;;;;;;;18.80;99.90;;;;;;5088330;28;19916;-90
2021/08/06 06:46:41;;;;;;;;;;;18.80;99.90;;;;;;5088889;28;19916;-89
2021/08/06 06:49:07;;;;;;;;;;;18.80;99.90;;;;;;5088268;28;19912;-89
2021/08/06 06:51:32;;;;;;;;;;;18.70;99.90;;;;;;5072520;28;19908;-89
2021/08/06 06:53:58;;;;;;;;;;;18.70;99.90;;;;;;5088169;28;19913;-89
2021/08/06 06:56:24;;;;;;;;;;;18.70;99.90;;;;;;5088168;28;19963;-89
2021/08/06 06:58:49;;;;;;;;;;;18.70;99.90;;;;;;5088028;28;19981;-89
2021/08/06 07:01:15;;;;;;;;;;;18.70;99.90;;;;;;5088715;28;19912;-89
2021/08/06 07:03:40;;;;;;;;;;;18.70;99.90;;;;;;5072715;28;19908;-89
2021/08/06 07:06:06;;;;;;;;;;;18.70;99.90;;;;;;5088170;28;19958;-89
2021/08/06 07:08:31;;;;;;;;;;;18.70;99.90;;;;;;5088134;28;19908;-89
2021/08/06 07:10:57;;;;;;;;;;;18.80;99.90;;;;;;5088250;28;19908;-89
2021/08/06 07:13:22;;;;;;;;;;;18.80;99.90;;;;;;5089153;28;19958;-90
2021/08/06 07:15:48;;;;;;;;;;;18.80;99.90;;;;;;5072673;28;19924;-89
2021/08/06 07:18:14;;;;;;;;;;;18.90;99.90;;;;;;5087892;28;19917;-89
2021/08/06 07:20:39;;;;;;;;;;;18.90;99.90;;;;;;5072476;28;19958;-89
2021/08/06 07:23:05;;;;;;;;;;;18.90;99.90;;;;;;5088047;28;19908;-90
2021/08/06 07:25:31;;;;;;;;;;;19.00;99.90;;;;;;5089064;28;20340;-89
2021/08/06 07:27:57;;;;;;;;;;;19.00;99.90;;;;;;5092040;28;19970;-89
2021/08/06 07:30:22;;;;;;;;;;;19.00;99.90;;;;;;5091991;28;19908;-89
2021/08/06 07:32:48;;;;;;;;;;;19.00;99.90;;;;;;5092135;28;19916;-89
2021/08/06 07:35:15;;;;;;;;;;;19.10;99.90;;;;;;5091937;28;19913;-89
2021/08/06 07:37:41;;;;;;;;;;;19.10;99.90;;;;;;5091847;28;19915;-90
2021/08/06 07:52:44;;;;;;;;;;;19.40;99.90;;;;;;4994397;28;19968;-89
2021/08/06 08:05:31;;;;;;;;;;;19.60;99.90;;;;;;4993972;28;19978;-89
2021/08/06 08:18:08;;;;;;;;;;;19.60;99.90;;;;;;4993772;28;20408;-89
2021/08/06 08:21:38;;;;;;;;;;;19.50;99.90;;;;;;4993834;28;19976;-89
2021/08/06 08:28:06;;;;;;;;;;;19.20;99.90;;;;;;4991858;28;19921;-88
2021/08/06 08:30:32;;;;;;;;;;;19.10;99.90;;;;;;5054498;28;19924;-89
2021/08/06 08:32:57;;;;;;;;;;;19.20;99.90;;;;;;5090508;28;19913;-89
2021/08/06 08:35:23;;;;;;;;;;;19.20;99.90;;;;;;5090701;28;19923;-89
2021/08/06 08:37:48;;;;;;;;;;;19.20;99.90;;;;;;5090187;28;19916;-89
2021/08/06 08:40:14;;;;;;;;;;;19.30;99.90;;;;;;5090487;28;20262;-89
2021/08/06 08:42:39;;;;;;;;;;;19.40;99.90;;;;;;5090467;28;20361;-89
2021/08/06 08:45:06;;;;;;;;;;;19.40;99.90;;;;;;5074827;28;19959;-89
2021/08/06 08:47:33;;;;;;;;;;;19.40;99.90;;;;;;5090414;28;19914;-89
2021/08/06 08:49:59;;;;;;;;;;;19.40;99.90;;;;;;5090322;28;19908;-90
2021/08/06 08:52:25;;;;;;;;;;;19.40;99.90;;;;;;5090630;28;20394;-89
2021/08/06 08:54:50;;;;;;;;;;;19.40;99.90;;;;;;5090355;28;19913;-89
2021/08/06 08:57:20;;;;;;;;;;;19.40;99.90;;;;;;5090290;28;20361;-89
2021/08/06 08:59:45;;;;;;;;;;;19.40;99.90;;;;;;5090273;28;19916;-89
2021/08/06 09:02:11;;;;;;;;;;;19.40;99.90;;;;;;5090256;28;19909;-89
2021/08/06 09:04:36;;;;;;;;;;;19.50;99.90;;;;;;5090598;28;19909;-89
2021/08/06 09:07:02;;;;;;;;;;;19.50;99.90;;;;;;5090265;28;19909;-89
2021/08/06 09:09:28;;;;;;;;;;;19.50;99.90;;;;;;5090955;28;20269;-89
2021/08/06 09:12:05;;;;;;;;;;;19.40;99.90;;;;;;5090250;28;19916;-89
2021/08/06 09:14:31;;;;;;;;;;;19.50;99.90;;;;;;5090265;28;19913;-88
2021/08/06 09:16:57;;;;;;;;;;;19.50;99.90;;;;;;5090057;28;19908;-88
2021/08/06 09:19:23;;;;;;;;;;;19.50;99.90;;;;;;5090338;28;19908;-88
2021/08/06 09:21:49;;;;;;;;;;;19.60;99.90;;;;;;5074256;28;19995;-88
2021/08/06 09:24:14;;;;;;;;;;;19.60;99.90;;;;;;5089951;28;20008;-88
2021/08/06 09:26:44;;;;;;;;;;;19.60;99.90;;;;;;5089866;28;19908;-89
2021/08/06 09:29:12;;;;;;;;;;;19.70;99.90;;;;;;5073987;28;19926;-89
2021/08/06 09:31:39;;;;;;;;;;;19.70;99.90;;;;;;5089885;28;19908;-89
2021/08/06 09:34:24;;;;;;;;;;;19.80;99.90;;;;;;5090351;28;19913;-89
2021/08/06 09:36:59;;;;;;;;;;;19.80;99.90;;;;;;5089975;28;19912;-90
2021/08/06 09:39:25;;;;;;;;;;;19.80;99.90;;;;;;5089757;28;19909;-88
2021/08/06 09:41:51;;;;;;;;;;;19.80;99.90;;;;;;5089590;28;19908;-88
2021/08/06 09:44:25;;;;;;;;;;;19.90;99.90;;;;;;5089408;28;20379;-89
2021/08/06 09:46:50;;;;;;;;;;;19.80;99.90;;;;;;5089484;28;19908;-88
2021/08/06 09:49:18;;;;;;;;;;;19.90;99.90;;;;;;5088524;28;19913;-89
2021/08/06 09:51:44;;;;;;;;;;;19.90;99.90;;;;;;5089264;28;19943;-88
2021/08/06 09:54:20;;;;;;;;;;;19.90;99.90;;;;;;5073721;28;19969;-90
2021/08/06 09:56:47;;;;;;;;;;;19.90;99.90;;;;;;5089295;28;19908;-89
2021/08/06 09:59:24;;;;;;;;;;;19.90;99.90;;;;;;5089233;28;19912;-89
2021/08/06 10:02:08;;;;;;;;;;;19.90;99.90;;;;;;5089294;28;20002;-89
2021/08/06 10:04:34;;;;;;;;;;;20.00;99.90;;;;;;5089649;28;19920;-89
2021/08/06 10:07:00;;;;;;;;;;;20.00;99.90;;;;;;5073586;28;19908;-89
2021/08/06 10:09:29;;;;;;;;;;;20.00;99.90;;;;;;5089040;28;19908;-88
2021/08/06 10:11:55;;;;;;;;;;;20.10;99.90;;;;;;5088927;28;19909;-89
2021/08/06 10:14:20;;;;;;;;;;;20.10;99.90;;;;;;5088902;28;19950;-88
2021/08/06 10:16:46;;;;;;;;;;;20.20;99.90;;;;;;5073086;28;19915;-89
2021/08/06 10:19:12;;;;;;;;;;;20.20;99.90;;;;;;5088742;28;19915;-88
2021/08/06 10:21:39;;;;;;;;;;;20.20;99.90;;;;;;5088687;28;20312;-88
2021/08/06 10:24:04;;;;;;;;;;;20.20;99.90;;;;;;5073574;28;20011;-88
2021/08/06 10:26:30;;;;;;;;;;;20.20;99.90;;;;;;5088825;28;20320;-89
2021/08/06 10:28:56;;;;;;;;;;;20.30;99.90;;;;;;5088351;28;20261;-89
2021/08/06 10:31:22;;;;;;;;;;;20.30;99.90;;;;;;5090789;28;19930;-89
2021/08/06 10:34:07;;;;;;;;;;;20.30;99.90;;;;;;5090497;28;19913;-88
2021/08/06 10:36:52;;;;;;;;;;;20.40;99.90;;;;;;5090086;28;20289;-88
2021/08/06 10:39:30;;;;;;;;;;;20.50;99.90;;;;;;5073273;28;19909;-88
2021/08/06 10:41:56;;;;;;;;;;;20.50;99.40;;;;;;5090199;28;19908;-89
2021/08/06 10:44:22;;;;;;;;;;;20.50;99.20;;;;;;5090713;28;19908;-89
2021/08/06 10:47:06;;;;;;;;;;;20.60;99.50;;;;;;5089184;28;20326;-89
2021/08/06 10:49:32;;;;;;;;;;;20.60;99.70;;;;;;5089815;28;19912;-88
2021/08/06 10:52:15;;;;;;;;;;;20.50;99.60;;;;;;5090024;28;20058;-89
2021/08/06 10:54:40;;;;;;;;;;;20.50;99.40;;;;;;5090595;28;19913;-89
2021/08/06 10:57:13;;;;;;;;;;;20.30;98.80;;;;;;5074884;28;19912;-89
2021/08/06 10:59:40;;;;;;;;;;;20.20;98.70;;;;;;5090012;28;20372;-89
2021/08/06 11:02:06;;;;;;;;;;;20.00;98.50;;;;;;5090433;28;19909;-89
2021/08/06 11:04:31;;;;;;;;;;;19.90;98.70;;;;;;5089751;28;20387;-89
2021/08/06 11:06:57;;;;;;;;;;;19.80;98.80;;;;;;5090416;28;19920;-88
2021/08/06 11:09:23;;;;;;;;;;;19.90;98.80;;;;;;5089941;28;19908;-88
2021/08/06 11:12:09;;;;;;;;;;;19.80;99.10;;;;;;5090199;28;19909;-89
2021/08/06 11:14:34;;;;;;;;;;;19.90;98.70;;;;;;5089758;28;19913;-90
2021/08/06 11:17:02;;;;;;;;;;;20.00;98.50;;;;;;5112527;22;20003;-87
2021/08/06 11:19:33;;;;;;;;;;;20.10;98.60;;;;;;5051193;28;19917;-87
2021/08/06 11:21:59;;;;;;;;;;;20.10;98.40;;;;;;5034505;28;19959;-87
2021/08/06 11:24:25;;;;;;;;;;;20.10;98.70;;;;;;5034355;28;19916;-87
2021/08/06 11:26:51;;;;;;;;;;;20.10;98.90;;;;;;5034460;28;19908;-87
2021/08/06 11:29:16;;;;;;;;;;;20.20;99.50;;;;;;5030714;28;19914;-87
2021/08/06 11:31:42;;;;;;;;;;;20.10;99.60;;;;;;5014700;28;19909;-87
2021/08/06 11:34:08;;;;;;;;;;;20.10;99.40;;;;;;5014621;28;20281;-87
2021/08/06 11:36:34;;;;;;;;;;;20.10;99.70;;;;;;5014671;28;19993;-87
2021/08/06 11:39:10;;;;;;;;;;;20.20;99.60;;;;;;5013946;28;20363;-87
2021/08/06 11:41:44;;;;;;;;;;;20.20;99.60;;;;;;5032708;28;19910;-86
2021/08/06 11:44:10;;;;;;;;;;;20.20;99.80;;;;;;5014891;28;19909;-87
2021/08/06 11:46:43;;;;;;;;;;;20.30;99.00;;;;;;5032202;28;19916;-86
2021/08/06 11:49:08;;;;;;;;;;;20.40;98.70;;;;;;5014156;28;20013;-86
2021/08/06 11:51:44;;;;;;;;;;;20.50;98.20;;;;;;5032508;28;19975;-87
2021/08/06 11:54:09;;;;;;;;;;;20.60;97.80;;;;;;5014812;28;19958;-87
2021/08/06 11:56:35;;;;;;;;;;;20.70;97.20;;;;;;5032010;28;19909;-87
2021/08/06 11:59:06;;;;;;;;;;;20.70;97.60;;;;;;5013855;28;19909;-87
2021/08/06 12:01:31;;;;;;;;;;;20.70;98.90;;;;;;5014357;28;19909;-86
2021/08/06 12:03:57;;;;;;;;;;;20.80;98.70;;;;;;5014533;28;19909;-87
2021/08/06 12:06:23;;;;;;;;;;;20.90;99.10;;;;;;5032067;28;20398;-87
2021/08/06 12:08:49;;;;;;;;;;;20.90;99.90;;;;;;5031505;28;19936;-86
2021/08/06 12:11:16;;;;;;;;;;;20.90;99.90;;;;;;5032671;28;19913;-86
2021/08/06 12:13:52;;;;;;;;;;;20.90;99.90;;;;;;5017935;28;20361;-87
2021/08/06 12:16:20;;;;;;;;;;;20.80;99.90;;;;;;5018210;28;19955;-86
2021/08/06 12:18:51;;;;;;;;;;;20.80;99.90;;;;;;5035399;28;19917;-87
2021/08/06 12:21:18;;;;;;;;;;;20.90;99.90;;;;;;5017624;28;20431;-87
2021/08/06 12:23:48;;;;;;;;;;;20.90;99.90;;;;;;5018118;28;19913;-87
2021/08/06 12:26:16;;;;;;;;;;;21.00;99.90;;;;;;5036072;28;19920;-87
2021/08/06 12:28:43;;;;;;;;;;;21.10;99.00;;;;;;5017913;28;19913;-87
2021/08/06 12:31:21;;;;;;;;;;;21.20;96.20;;;;;;5017750;28;19909;-87
2021/08/06 12:33:49;;;;;;;;;;;21.40;95.00;;;;;;5035291;28;19913;-87
2021/08/06 12:36:14;;;;;;;;;;;21.50;94.40;;;;;;5017676;28;19909;-87
2021/08/06 12:38:40;;;;;;;;;;;21.60;94.20;;;;;;5035518;28;20388;-87
2021/08/06 12:41:06;;;;;;;;;;;21.60;94.60;;;;;;5034780;28;19909;-87
2021/08/06 12:43:31;;;;;;;;;;;21.50;95.00;;;;;;5017320;28;20380;-87
2021/08/06 12:46:16;;;;;;;;;;;21.50;95.00;;;;;;5017726;28;19909;-88
2021/08/06 12:49:00;;;;;;;;;;;21.50;95.20;;;;;;5035100;28;19948;-87
2021/08/06 12:51:26;;;;;;;;;;;21.50;94.50;;;;;;5017308;28;19913;-87
2021/08/06 12:53:51;;;;;;;;;;;21.50;93.80;;;;;;5017147;28;19919;-87
2021/08/06 12:56:17;;;;;;;;;;;21.50;93.30;;;;;;5017207;28;19910;-86
2021/08/06 12:58:43;;;;;;;;;;;21.40;93.50;;;;;;5017172;28;20373;-87
2021/08/06 13:01:08;;;;;;;;;;;21.30;93.60;;;;;;5016378;28;19981;-86
2021/08/06 13:03:43;;;;;;;;;;;21.30;93.90;;;;;;5017112;28;19913;-87
2021/08/06 13:06:09;;;;;;;;;;;21.30;94.00;;;;;;5016954;28;20377;-87
2021/08/06 13:08:44;;;;;;;;;;;21.20;94.40;;;;;;5017081;28;19909;-86
2021/08/06 13:11:13;;;;;;;;;;;21.20;94.20;;;;;;5016427;28;19909;-87
2021/08/06 13:13:39;;;;;;;;;;;21.30;94.50;;;;;;5016883;28;19909;-87
2021/08/06 13:16:06;;;;;;;;;;;21.30;94.80;;;;;;5016962;28;20285;-86
2021/08/06 13:18:31;;;;;;;;;;;21.30;94.60;;;;;;5017053;28;19917;-87
2021/08/06 13:20:57;;;;;;;;;;;21.30;94.80;;;;;;5016654;28;19983;-86
2021/08/06 13:23:23;;;;;;;;;;;21.40;95.00;;;;;;5016694;28;19913;-87
2021/08/06 13:25:48;;;;;;;;;;;21.40;94.50;;;;;;5016822;28;20012;-86
2021/08/06 13:28:14;;;;;;;;;;;21.50;94.70;;;;;;5016594;28;19913;-86
2021/08/06 13:30:41;;;;;;;;;;;21.60;94.20;;;;;;5016205;28;19909;-87
2021/08/06 13:33:06;;;;;;;;;;;21.60;94.00;;;;;;5033681;28;19916;-87
2021/08/06 13:35:32;;;;;;;;;;;21.70;93.80;;;;;;5016244;28;19913;-87
2021/08/06 13:37:58;;;;;;;;;;;21.70;93.60;;;;;;5016379;28;20424;-86
2021/08/06 13:40:24;;;;;;;;;;;21.80;93.90;;;;;;5015898;28;19967;-86
2021/08/06 13:42:50;;;;;;;;;;;21.80;93.60;;;;;;5017954;28;19916;-86
2021/08/06 13:45:15;;;;;;;;;;;21.80;93.70;;;;;;5036279;28;19909;-87
2021/08/06 13:47:42;;;;;;;;;;;21.80;94.00;;;;;;5017640;28;19917;-87
2021/08/06 13:50:08;;;;;;;;;;;21.80;93.90;;;;;;5021871;28;19913;-87
2021/08/06 13:52:34;;;;;;;;;;;21.90;93.80;;;;;;5022626;28;19913;-87
2021/08/06 13:55:00;;;;;;;;;;;21.90;93.60;;;;;;5022434;28;19913;-87
2021/08/06 13:57:25;;;;;;;;;;;22.00;93.70;;;;;;5044156;28;19959;-87
2021/08/06 13:59:51;;;;;;;;;;;22.00;92.90;;;;;;5041883;28;19913;-87
2021/08/06 14:02:16;;;;;;;;;;;22.10;92.60;;;;;;5046426;28;20257;-87
2021/08/06 14:04:42;;;;;;;;;;;22.20;92.10;;;;;;5035679;28;20051;-87
2021/08/06 14:07:08;;;;;;;;;;;22.30;92.40;;;;;;5033133;28;19909;-87
2021/08/06 14:09:34;;;;;;;;;;;22.20;92.50;;;;;;5033795;28;19913;-87
2021/08/06 14:12:00;;;;;;;;;;;22.20;92.60;;;;;;5034314;28;19909;-87
2021/08/06 14:14:26;;;;;;;;;;;22.10;92.40;;;;;;5032793;28;20384;-86
2021/08/06 14:16:51;;;;;;;;;;;22.10;91.90;;;;;;5016983;28;19909;-87
2021/08/06 14:19:19;;;;;;;;;;;22.20;92.20;;;;;;5032684;28;19917;-87
2021/08/06 14:21:45;;;;;;;;;;;22.40;91.60;;;;;;5034438;28;19936;-87
2021/08/06 14:24:11;;;;;;;;;;;22.50;91.40;;;;;;5037102;28;19909;-87
2021/08/06 14:26:36;;;;;;;;;;;22.80;91.30;;;;;;5054308;28;19916;-87
2021/08/06 14:29:02;;;;;;;;;;;22.80;90.70;;;;;;5052507;28;19910;-87
2021/08/06 14:31:27;;;;;;;;;;;22.80;89.50;;;;;;5052165;28;19910;-87
2021/08/06 14:33:53;;;;;;;;;;;22.80;90.00;;;;;;5028390;28;20173;-87
2021/08/06 14:36:19;;;;;;;;;;;22.60;90.40;;;;;;5030164;28;19928;-87
2021/08/06 14:38:45;;;;;;;;;;;22.50;90.90;;;;;;5039925;28;20377;-87
2021/08/06 14:41:10;;;;;;;;;;;22.40;90.90;;;;;;5031248;28;19909;-87
2021/08/06 14:43:36;;;;;;;;;;;22.40;90.90;;;;;;5015513;28;19916;-87
2021/08/06 14:46:03;;;;;;;;;;;22.60;90.80;;;;;;5015472;28;20031;-87
2021/08/06 14:48:30;;;;;;;;;;;22.60;90.30;;;;;;5015515;28;19959;-86
2021/08/06 14:50:57;;;;;;;;;;;22.60;90.30;;;;;;5014724;28;19910;-87
2021/08/06 14:53:22;;;;;;;;;;;22.50;90.50;;;;;;5015360;28;19967;-87